x

Nanakwa Shoal (46181) Weather Station

11:00pm - Sat 28th Feb 2015 All times are PST. -8 hours from GMT.

  • Peak Period 7s
  • Wind
    4mph, 7mph gusts
  • Sea Temp 44°f
  • Air Temp 39°f
  • Sea Pressure 1025mb
  • Nanakwa Shoal
  • Nanakwa Shoal

More Historic Weather Station data

Upgrade to MSW Pro to gain access to the past 30 days of data for over 8000 Wavebouys and Weather Stations around the globe.

Join Pro

Comparision Forecast

View Surf forecast
   
Sat 02/28 11:00pm  -  7s 4 7 mph 1025mb 44f 39f
10:00pm  -  7s 4
mph
1025.2mb 44f 40f
9:00pm  -  7s 4 7 mph 1025.3mb 44f 40f
8:00pm 0.3ft 7s 2
mph
1025.1mb 44f 40f
7:00pm 0.3ft 7s 4 7 mph 1025.1mb 44f 40f
6:00pm 0.3ft 7s 4 7 mph 1025mb 44f 41f
5:00pm 0.3ft 8s 2 7 mph 1025mb 45f 43f
4:00pm 0.3ft 2s 4 7 mph 1025.4mb 45f 43f
2:00pm 0.3ft 3s 4
mph
1026.2mb 45f 44f
1:00pm 0.3ft 3s 4 7 mph 1026.4mb 45f 44f
12:00pm 0.7ft 2s 11 16 mph 1026.9mb 45f 43f
11:00am 1ft 2s 20 22 mph 1027mb 45f 41f
10:00am 1ft 3s 20 22 mph 1027mb 45f 38f
9:00am 1.3ft 3s 25 27 mph 1026.7mb 45f 37f
8:00am 1ft 2s 22 27 mph 1026.3mb 45f 37f
7:00am 1ft 2s 18 22 mph 1026.5mb 45f 37f
6:00am 0.7ft 2s 13 18 mph 1026.9mb 44f 37f
5:00am 1ft 3s 18 22 mph 1027mb 45f 37f
4:00am 0.7ft 2s 18 22 mph 1026.8mb 45f 38f
3:00am 0.7ft 2s 18 22 mph 1026.2mb 44f 38f
1:00am 1ft 2s 22 27 mph 1025.7mb 45f 39f
12:00am 1ft 2s 18 25 mph 1025.6mb 45f 40f
Fri 02/27 11:00pm 0.7ft 2s 16 20 mph 1025.4mb 45f 41f
10:00pm 0.7ft 2s 20 22 mph 1025.1mb 45f 42f
9:00pm 0.7ft 2s 20 27 mph 1025mb 45f 43f
8:00pm  -   -  16
mph
- - -
7:00pm 0.7ft 2s 18 22 mph 1024.9mb 45f 46f
6:00pm 0.3ft 3s 13 18 mph 1023.8mb 45f 47f
5:00pm 0.7ft 2s 11 13 mph 1023.9mb 45f 49f
4:00pm 1ft 2s 18 22 mph 1023.9mb 45f 48f
3:00pm 0.7ft 2s 22 27 mph 1024.1mb 45f 48f
2:00pm 1ft 2s 20 25 mph 1023.9mb 45f 47f
1:00pm 1ft 2s 22 25 mph 1023.7mb 45f 46f
12:00pm 1ft 2s 25 27 mph 1023.9mb 44f 45f
11:00am 1ft 2s 20 27 mph 1024.1mb 44f 44f
10:00am 1.3ft 2s 20 27 mph 1023.6mb 44f 44f
9:00am 1ft 2s 27 34 mph 1023.1mb 44f 42f
8:00am 1.3ft 2s 25 31 mph 1022.1mb 44f 41f
7:00am 1.3ft 2s 25 29 mph 1021.5mb 43f 40f
6:00am 1.3ft 2s 25 31 mph 1020.9mb 43f 42f
5:00am 1.3ft 2s 25 29 mph 1020.6mb 43f 42f
4:00am 1.3ft 2s 25 29 mph 1020.2mb 43f 44f
3:00am 1ft 2s 20 27 mph 1020.1mb 43f 43f
2:00am 1.3ft 3s 25 31 mph 1019.3mb 43f 43f
1:00am 1ft 3s 25 31 mph 1018.6mb 43f 43f
12:00am 1ft 3s 22 27 mph 1018.4mb 43f 43f
Thu 02/26 11:00pm  -   -  25
mph
- - 43f
10:00pm 1ft 2s 22 27 mph 1018.1mb 44f 43f
9:00pm 1ft 2s 22 27 mph 1017.8mb 43f 43f
8:00pm 0.7ft 2s 16 22 mph 1018mb 43f 42f
7:00pm 0.3ft 2s 11 16 mph 1018mb 43f 43f
6:00pm 0.7ft 2s 13 18 mph 1017.9mb 43f 43f
5:00pm 0.7ft 3s 11 16 mph 1018.1mb 43f 43f
4:00pm 0.7ft 2s 7 11 mph 1018.3mb 43f 43f
3:00pm 0.7ft 2s 9 13 mph 1018.4mb 43f 43f
2:00pm 0.7ft 2s 7 13 mph 1018.7mb 43f 43f
1:00pm 0.7ft 2s 4 7 mph 1019.1mb 43f 42f
12:00pm 0.3ft 2s 11 16 mph 1019.6mb 43f 40f
11:00am 0.3ft 2s 9 13 mph 1019.8mb 43f 39f
10:00am 0.3ft 2s 11 16 mph 1019.8mb 43f 39f
9:00am 0.3ft 2s 11 16 mph 1019.8mb 43f 38f
8:00am 0.7ft 2s 13 16 mph 1019.7mb 43f 38f
7:00am 0.3ft 2s 16 20 mph 1019.6mb 42f 39f
6:00am 0.3ft 2s 16 18 mph 1019.8mb 42f 39f
5:00am 0.7ft 2s 13 16 mph 1020.4mb 42f 39f
4:00am 0.3ft 2s 13 16 mph 1020.9mb 42f 39f
3:00am 0.3ft 2s 9 11 mph 1021.5mb 43f 39f
2:00am 0.3ft 2s 7 9 mph 1022.1mb 43f 39f
1:00am 0.3ft 2s 11 13 mph 1022.7mb 42f 39f
12:00am 0.3ft 4s 7 9 mph 1023.1mb 42f 39f
Wed 02/25 11:00pm 0.3ft 8s 9 11 mph 1023.8mb 42f 39f
10:00pm 0.3ft 7s 9 11 mph 1024.3mb 42f 40f
9:00pm  -  8s 9 11 mph 1024.4mb 42f 40f
8:00pm  -  8s 9
mph
1024.6mb 42f 40f
7:00pm  -  8s 7 9 mph 1025mb 42f 40f
6:00pm  -  8s 4 7 mph 1025.2mb 43f 41f
5:00pm  -  8s 7 9 mph 1025.6mb 43f 41f
4:00pm  -  9s 7
mph
1026.4mb 43f 40f
3:00pm  -  8s 2 4 mph 1027.1mb 44f 40f
2:00pm  -  9s 2 4 mph 1027.2mb 44f 40f
1:00pm  -  8s 4 7 mph 1027.7mb 43f 39f
12:00pm 0.3ft 8s 4
mph
1028.2mb 43f 39f
11:00am 0.3ft 8s 7 9 mph 1028.2mb 42f 38f
10:00am  -  8s 9
mph
1028.3mb 43f 38f
9:00am  -  8s 7
mph
1028.3mb 42f 38f